sensor_id;sensor_type;location;lat;lon;timestamp;temperature;humidity
33109;HTU21D;19481;51.118;6.940;2023-04-24T00:02:18;11.33;59.70
33109;HTU21D;19481;51.118;6.940;2023-04-24T00:07:21;11.33;59.15
33109;HTU21D;19481;51.118;6.940;2023-04-24T00:12:22;11.39;58.87
33109;HTU21D;19481;51.118;6.940;2023-04-24T00:17:24;11.45;58.77
33109;HTU21D;19481;51.118;6.940;2023-04-24T00:22:28;11.47;58.73
33109;HTU21D;19481;51.118;6.940;2023-04-24T00:27:29;11.55;58.58
33109;HTU21D;19481;51.118;6.940;2023-04-24T00:32:31;11.56;58.76
33109;HTU21D;19481;51.118;6.940;2023-04-24T00:37:34;11.55;58.84
33109;HTU21D;19481;51.118;6.940;2023-04-24T00:42:36;11.60;58.63
33109;HTU21D;19481;51.118;6.940;2023-04-24T00:47:38;11.63;58.63
33109;HTU21D;19481;51.118;6.940;2023-04-24T00:52:41;11.64;58.94
33109;HTU21D;19481;51.118;6.940;2023-04-24T00:57:43;11.62;58.78
33109;HTU21D;19481;51.118;6.940;2023-04-24T01:02:45;11.63;58.82
33109;HTU21D;19481;51.118;6.940;2023-04-24T01:07:48;11.62;58.91
33109;HTU21D;19481;51.118;6.940;2023-04-24T01:12:50;11.63;59.02
33109;HTU21D;19481;51.118;6.940;2023-04-24T01:17:53;11.59;59.09
33109;HTU21D;19481;51.118;6.940;2023-04-24T01:22:56;11.48;59.22
33109;HTU21D;19481;51.118;6.940;2023-04-24T01:27:58;11.41;59.25
33109;HTU21D;19481;51.118;6.940;2023-04-24T01:33:00;11.30;59.23
33109;HTU21D;19481;51.118;6.940;2023-04-24T01:38:04;11.13;59.57
33109;HTU21D;19481;51.118;6.940;2023-04-24T01:43:06;10.97;59.79
33109;HTU21D;19481;51.118;6.940;2023-04-24T01:48:08;10.79;60.12
33109;HTU21D;19481;51.118;6.940;2023-04-24T01:53:11;10.64;60.23
33109;HTU21D;19481;51.118;6.940;2023-04-24T01:58:13;10.42;60.61
33109;HTU21D;19481;51.118;6.940;2023-04-24T02:03:15;10.26;60.44
33109;HTU21D;19481;51.118;6.940;2023-04-24T02:08:18;10.09;60.73
33109;HTU21D;19481;51.118;6.940;2023-04-24T02:13:20;9.95;61.27
33109;HTU21D;19481;51.118;6.940;2023-04-24T02:18:21;9.89;60.66
33109;HTU21D;19481;51.118;6.940;2023-04-24T02:23:24;9.77;61.95
33109;HTU21D;19481;51.118;6.940;2023-04-24T02:28:27;9.70;60.77
33109;HTU21D;19481;51.118;6.940;2023-04-24T02:33:29;9.65;60.80
33109;HTU21D;19481;51.118;6.940;2023-04-24T02:38:31;9.64;60.76
33109;HTU21D;19481;51.118;6.940;2023-04-24T02:43:33;9.75;60.43
33109;HTU21D;19481;51.118;6.940;2023-04-24T02:48:35;9.83;60.31
33109;HTU21D;19481;51.118;6.940;2023-04-24T02:53:38;9.88;60.15
33109;HTU21D;19481;51.118;6.940;2023-04-24T02:58:39;9.95;60.09
33109;HTU21D;19481;51.118;6.940;2023-04-24T03:03:41;9.96;60.09
33109;HTU21D;19481;51.118;6.940;2023-04-24T03:08:44;9.98;60.07
33109;HTU21D;19481;51.118;6.940;2023-04-24T03:13:45;10.00;60.08
33109;HTU21D;19481;51.118;6.940;2023-04-24T03:18:47;10.03;60.20
33109;HTU21D;19481;51.118;6.940;2023-04-24T03:23:50;10.03;61.73
33109;HTU21D;19481;51.118;6.940;2023-04-24T03:28:51;10.03;62.29
33109;HTU21D;19481;51.118;6.940;2023-04-24T03:33:53;10.05;61.50
33109;HTU21D;19481;51.118;6.940;2023-04-24T03:38:56;10.05;60.12
33109;HTU21D;19481;51.118;6.940;2023-04-24T03:43:58;10.01;60.37
33109;HTU21D;19481;51.118;6.940;2023-04-24T03:49:00;9.99;60.33
33109;HTU21D;19481;51.118;6.940;2023-04-24T03:54:03;9.98;60.35
33109;HTU21D;19481;51.118;6.940;2023-04-24T03:59:05;10.01;60.31
33109;HTU21D;19481;51.118;6.940;2023-04-24T04:04:06;9.99;60.26
33109;HTU21D;19481;51.118;6.940;2023-04-24T04:09:10;10.01;60.25
33109;HTU21D;19481;51.118;6.940;2023-04-24T04:14:11;10.00;60.20
33109;HTU21D;19481;51.118;6.940;2023-04-24T04:19:13;10.01;60.65
33109;HTU21D;19481;51.118;6.940;2023-04-24T04:24:16;9.91;61.75
33109;HTU21D;19481;51.118;6.940;2023-04-24T04:29:17;9.80;62.01
33109;HTU21D;19481;51.118;6.940;2023-04-24T04:34:19;9.81;62.70
33109;HTU21D;19481;51.118;6.940;2023-04-24T04:39:22;9.81;61.73
33109;HTU21D;19481;51.118;6.940;2023-04-24T04:44:24;9.82;60.91
33109;HTU21D;19481;51.118;6.940;2023-04-24T04:49:28;9.83;62.43
33109;HTU21D;19481;51.118;6.940;2023-04-24T04:54:31;9.82;62.13
33109;HTU21D;19481;51.118;6.940;2023-04-24T04:59:32;9.84;60.76
33109;HTU21D;19481;51.118;6.940;2023-04-24T05:04:34;9.86;60.87
33109;HTU21D;19481;51.118;6.940;2023-04-24T05:09:37;9.84;61.63
33109;HTU21D;19481;51.118;6.940;2023-04-24T05:14:38;9.88;60.78
33109;HTU21D;19481;51.118;6.940;2023-04-24T05:19:40;9.93;60.53
33109;HTU21D;19481;51.118;6.940;2023-04-24T05:24:43;9.96;60.37
33109;HTU21D;19481;51.118;6.940;2023-04-24T05:29:45;9.95;60.44
33109;HTU21D;19481;51.118;6.940;2023-04-24T05:34:46;9.89;62.21
33109;HTU21D;19481;51.118;6.940;2023-04-24T05:39:49;9.80;61.44
33109;HTU21D;19481;51.118;6.940;2023-04-24T05:44:51;9.52;63.76
33109;HTU21D;19481;51.118;6.940;2023-04-24T05:49:54;9.36;63.27
33109;HTU21D;19481;51.118;6.940;2023-04-24T05:54:57;9.32;64.78
33109;HTU21D;19481;51.118;6.940;2023-04-24T05:59:58;9.29;64.90
33109;HTU21D;19481;51.118;6.940;2023-04-24T06:05:00;9.31;63.18
33109;HTU21D;19481;51.118;6.940;2023-04-24T06:10:04;9.31;64.35
33109;HTU21D;19481;51.118;6.940;2023-04-24T06:15:07;9.34;64.15
33109;HTU21D;19481;51.118;6.940;2023-04-24T06:20:09;9.33;63.82
33109;HTU21D;19481;51.118;6.940;2023-04-24T06:25:13;9.36;63.34
33109;HTU21D;19481;51.118;6.940;2023-04-24T06:30:15;9.44;63.60
33109;HTU21D;19481;51.118;6.940;2023-04-24T06:35:16;9.35;63.95
33109;HTU21D;19481;51.118;6.940;2023-04-24T06:40:19;9.14;68.45
33109;HTU21D;19481;51.118;6.940;2023-04-24T06:45:21;9.04;65.14
33109;HTU21D;19481;51.118;6.940;2023-04-24T06:50:23;9.00;65.23
33109;HTU21D;19481;51.118;6.940;2023-04-24T06:55:25;8.97;65.95
33109;HTU21D;19481;51.118;6.940;2023-04-24T07:00:27;8.89;66.18
33109;HTU21D;19481;51.118;6.940;2023-04-24T07:05:30;8.85;66.63
33109;HTU21D;19481;51.118;6.940;2023-04-24T07:10:35;8.85;69.01
33109;HTU21D;19481;51.118;6.940;2023-04-24T07:15:36;8.79;67.14
33109;HTU21D;19481;51.118;6.940;2023-04-24T07:20:39;8.79;66.91
33109;HTU21D;19481;51.118;6.940;2023-04-24T07:25:42;8.77;66.85
33109;HTU21D;19481;51.118;6.940;2023-04-24T07:30:44;8.83;66.94
33109;HTU21D;19481;51.118;6.940;2023-04-24T07:35:46;8.80;67.39
33109;HTU21D;19481;51.118;6.940;2023-04-24T07:40:49;8.76;69.68
33109;HTU21D;19481;51.118;6.940;2023-04-24T07:45:50;8.72;69.42
33109;HTU21D;19481;51.118;6.940;2023-04-24T07:50:52;8.68;67.76
33109;HTU21D;19481;51.118;6.940;2023-04-24T07:55:56;8.55;70.84
33109;HTU21D;19481;51.118;6.940;2023-04-24T08:00:58;8.38;69.36
33109;HTU21D;19481;51.118;6.940;2023-04-24T08:05:59;7.98;68.64
33109;HTU21D;19481;51.118;6.940;2023-04-24T08:11:02;7.75;71.58
33109;HTU21D;19481;51.118;6.940;2023-04-24T08:16:05;7.69;71.73
33109;HTU21D;19481;51.118;6.940;2023-04-24T08:21:07;7.68;71.98
33109;HTU21D;19481;51.118;6.940;2023-04-24T08:26:10;7.69;69.99
33109;HTU21D;19481;51.118;6.940;2023-04-24T08:31:12;7.83;72.58
33109;HTU21D;19481;51.118;6.940;2023-04-24T08:36:14;7.97;69.04
33109;HTU21D;19481;51.118;6.940;2023-04-24T08:41:17;8.01;68.80
33109;HTU21D;19481;51.118;6.940;2023-04-24T08:46:19;8.12;69.93
33109;HTU21D;19481;51.118;6.940;2023-04-24T08:51:22;8.14;68.43
33109;HTU21D;19481;51.118;6.940;2023-04-24T08:56:26;8.21;68.27
33109;HTU21D;19481;51.118;6.940;2023-04-24T09:01:29;8.22;68.92
33109;HTU21D;19481;51.118;6.940;2023-04-24T09:06:34;8.21;69.23
33109;HTU21D;19481;51.118;6.940;2023-04-24T09:11:37;8.28;73.93
33109;HTU21D;19481;51.118;6.940;2023-04-24T09:16:39;8.33;70.35
33109;HTU21D;19481;51.118;6.940;2023-04-24T09:21:40;8.37;70.04
33109;HTU21D;19481;51.118;6.940;2023-04-24T09:26:44;8.34;70.45
33109;HTU21D;19481;51.118;6.940;2023-04-24T09:31:46;8.44;69.29
33109;HTU21D;19481;51.118;6.940;2023-04-24T09:36:47;8.38;70.05
33109;HTU21D;19481;51.118;6.940;2023-04-24T09:41:51;8.43;71.39
33109;HTU21D;19481;51.118;6.940;2023-04-24T09:46:55;8.50;70.68
33109;HTU21D;19481;51.118;6.940;2023-04-24T09:52:02;8.60;70.02
33109;HTU21D;19481;51.118;6.940;2023-04-24T09:57:07;8.68;69.37
33109;HTU21D;19481;51.118;6.940;2023-04-24T10:02:17;8.77;68.80
33109;HTU21D;19481;51.118;6.940;2023-04-24T10:07:18;8.80;69.93
33109;HTU21D;19481;51.118;6.940;2023-04-24T10:12:22;9.05;68.22
33109;HTU21D;19481;51.118;6.940;2023-04-24T10:17:25;9.21;68.25
33109;HTU21D;19481;51.118;6.940;2023-04-24T10:22:28;9.45;67.99
33109;HTU21D;19481;51.118;6.940;2023-04-24T10:27:32;9.66;68.17
33109;HTU21D;19481;51.118;6.940;2023-04-24T10:32:33;9.84;67.42
33109;HTU21D;19481;51.118;6.940;2023-04-24T10:37:38;9.91;68.16
33109;HTU21D;19481;51.118;6.940;2023-04-24T10:42:42;9.94;67.72
33109;HTU21D;19481;51.118;6.940;2023-04-24T10:47:51;9.93;67.43
33109;HTU21D;19481;51.118;6.940;2023-04-24T10:52:54;9.83;69.45
33109;HTU21D;19481;51.118;6.940;2023-04-24T10:58:07;9.92;68.11
33109;HTU21D;19481;51.118;6.940;2023-04-24T11:03:24;10.14;70.68
33109;HTU21D;19481;51.118;6.940;2023-04-24T11:08:28;10.31;67.18
33109;HTU21D;19481;51.118;6.940;2023-04-24T11:14:03;10.13;69.33
33109;HTU21D;19481;51.118;6.940;2023-04-24T11:19:09;10.14;67.05
33109;HTU21D;19481;51.118;6.940;2023-04-24T11:24:29;10.18;67.53
33109;HTU21D;19481;51.118;6.940;2023-04-24T11:29:43;10.51;66.94
33109;HTU21D;19481;51.118;6.940;2023-04-24T11:34:48;10.96;64.87
33109;HTU21D;19481;51.118;6.940;2023-04-24T11:39:52;11.22;64.21
33109;HTU21D;19481;51.118;6.940;2023-04-24T11:44:55;11.54;63.73
33109;HTU21D;19481;51.118;6.940;2023-04-24T11:49:58;11.72;63.95
33109;HTU21D;19481;51.118;6.940;2023-04-24T11:54:59;11.47;64.77
33109;HTU21D;19481;51.118;6.940;2023-04-24T12:00:03;11.57;64.45
33109;HTU21D;19481;51.118;6.940;2023-04-24T12:05:06;11.64;64.21
33109;HTU21D;19481;51.118;6.940;2023-04-24T12:10:08;11.64;64.31
33109;HTU21D;19481;51.118;6.940;2023-04-24T12:15:11;11.72;63.92
33109;HTU21D;19481;51.118;6.940;2023-04-24T12:20:14;11.86;62.98
33109;HTU21D;19481;51.118;6.940;2023-04-24T12:25:17;12.00;62.87
33109;HTU21D;19481;51.118;6.940;2023-04-24T12:30:20;11.81;62.88
33109;HTU21D;19481;51.118;6.940;2023-04-24T12:35:23;11.90;62.63
33109;HTU21D;19481;51.118;6.940;2023-04-24T12:40:25;12.22;61.63
33109;HTU21D;19481;51.118;6.940;2023-04-24T12:45:30;12.27;61.60
33109;HTU21D;19481;51.118;6.940;2023-04-24T12:50:32;12.01;62.41
33109;HTU21D;19481;51.118;6.940;2023-04-24T12:55:33;11.89;62.57
33109;HTU21D;19481;51.118;6.940;2023-04-24T13:00:36;12.16;61.38
33109;HTU21D;19481;51.118;6.940;2023-04-24T13:05:39;12.50;59.66
33109;HTU21D;19481;51.118;6.940;2023-04-24T13:10:41;12.18;61.16
33109;HTU21D;19481;51.118;6.940;2023-04-24T13:15:44;12.02;61.30
33109;HTU21D;19481;51.118;6.940;2023-04-24T13:20:46;11.99;59.27
33109;HTU21D;19481;51.118;6.940;2023-04-24T13:25:47;12.25;59.22
33109;HTU21D;19481;51.118;6.940;2023-04-24T13:30:51;12.45;58.06
33109;HTU21D;19481;51.118;6.940;2023-04-24T13:35:52;13.34;56.35
33109;HTU21D;19481;51.118;6.940;2023-04-24T13:40:54;13.05;57.41
33109;HTU21D;19481;51.118;6.940;2023-04-24T13:45:57;12.88;56.87
33109;HTU21D;19481;51.118;6.940;2023-04-24T13:51:03;12.35;59.16
33109;HTU21D;19481;51.118;6.940;2023-04-24T13:56:05;12.63;58.21
33109;HTU21D;19481;51.118;6.940;2023-04-24T14:01:08;13.05;56.45
33109;HTU21D;19481;51.118;6.940;2023-04-24T14:06:09;13.43;56.05
33109;HTU21D;19481;51.118;6.940;2023-04-24T14:11:11;13.50;56.11
33109;HTU21D;19481;51.118;6.940;2023-04-24T14:16:14;13.27;56.62
33109;HTU21D;19481;51.118;6.940;2023-04-24T14:21:16;13.01;57.51
33109;HTU21D;19481;51.118;6.940;2023-04-24T14:26:17;13.05;56.82
33109;HTU21D;19481;51.118;6.940;2023-04-24T14:31:20;12.96;57.44
33109;HTU21D;19481;51.118;6.940;2023-04-24T14:36:22;13.15;56.74
33109;HTU21D;19481;51.118;6.940;2023-04-24T14:41:23;13.11;56.74
33109;HTU21D;19481;51.118;6.940;2023-04-24T14:46:26;13.03;56.29
33109;HTU21D;19481;51.118;6.940;2023-04-24T14:51:28;13.37;55.58
33109;HTU21D;19481;51.118;6.940;2023-04-24T14:56:30;13.22;55.79
33109;HTU21D;19481;51.118;6.940;2023-04-24T15:01:33;13.63;54.59
33109;HTU21D;19481;51.118;6.940;2023-04-24T15:06:35;13.93;53.81
33109;HTU21D;19481;51.118;6.940;2023-04-24T15:11:36;13.91;53.90
33109;HTU21D;19481;51.118;6.940;2023-04-24T15:16:39;13.98;53.59
33109;HTU21D;19481;51.118;6.940;2023-04-24T15:21:41;13.86;54.14
33109;HTU21D;19481;51.118;6.940;2023-04-24T15:26:44;13.92;53.57
33109;HTU21D;19481;51.118;6.940;2023-04-24T15:31:47;14.01;52.69
33109;HTU21D;19481;51.118;6.940;2023-04-24T15:36:49;14.10;52.88
33109;HTU21D;19481;51.118;6.940;2023-04-24T15:41:50;13.62;53.95
33109;HTU21D;19481;51.118;6.940;2023-04-24T15:46:54;13.36;53.61
33109;HTU21D;19481;51.118;6.940;2023-04-24T15:51:56;13.32;53.93
33109;HTU21D;19481;51.118;6.940;2023-04-24T15:56:58;13.18;54.03
33109;HTU21D;19481;51.118;6.940;2023-04-24T16:02:01;12.90;52.86
33109;HTU21D;19481;51.118;6.940;2023-04-24T16:07:04;12.87;54.26
33109;HTU21D;19481;51.118;6.940;2023-04-24T16:12:05;13.04;52.00
33109;HTU21D;19481;51.118;6.940;2023-04-24T16:17:09;13.02;52.97
33109;HTU21D;19481;51.118;6.940;2023-04-24T16:22:11;12.89;53.72
33109;HTU21D;19481;51.118;6.940;2023-04-24T16:27:13;12.78;53.76
33109;HTU21D;19481;51.118;6.940;2023-04-24T16:32:16;12.62;54.17
33109;HTU21D;19481;51.118;6.940;2023-04-24T16:37:18;12.74;53.75
33109;HTU21D;19481;51.118;6.940;2023-04-24T16:42:19;12.77;53.49
33109;HTU21D;19481;51.118;6.940;2023-04-24T16:47:23;12.89;53.16
33109;HTU21D;19481;51.118;6.940;2023-04-24T16:52:24;12.85;53.30
33109;HTU21D;19481;51.118;6.940;2023-04-24T16:57:26;12.64;53.65
33109;HTU21D;19481;51.118;6.940;2023-04-24T17:02:29;12.57;53.81
33109;HTU21D;19481;51.118;6.940;2023-04-24T17:07:30;12.51;53.68
33109;HTU21D;19481;51.118;6.940;2023-04-24T17:12:32;12.41;54.00
33109;HTU21D;19481;51.118;6.940;2023-04-24T17:17:35;12.27;54.38
33109;HTU21D;19481;51.118;6.940;2023-04-24T17:22:37;12.23;54.18
33109;HTU21D;19481;51.118;6.940;2023-04-24T17:27:38;12.17;54.00
33109;HTU21D;19481;51.118;6.940;2023-04-24T17:32:41;12.17;53.32
33109;HTU21D;19481;51.118;6.940;2023-04-24T17:37:43;12.13;53.91
33109;HTU21D;19481;51.118;6.940;2023-04-24T17:42:44;12.06;53.94
33109;HTU21D;19481;51.118;6.940;2023-04-24T17:47:47;11.96;54.19
33109;HTU21D;19481;51.118;6.940;2023-04-24T17:52:49;11.78;54.49
33109;HTU21D;19481;51.118;6.940;2023-04-24T17:57:51;11.66;53.94
33109;HTU21D;19481;51.118;6.940;2023-04-24T18:02:54;11.47;54.62
33109;HTU21D;19481;51.118;6.940;2023-04-24T18:08:00;11.38;54.51
33109;HTU21D;19481;51.118;6.940;2023-04-24T18:13:02;11.29;54.45
33109;HTU21D;19481;51.118;6.940;2023-04-24T18:18:05;11.13;54.80
33109;HTU21D;19481;51.118;6.940;2023-04-24T18:23:07;10.97;55.07
33109;HTU21D;19481;51.118;6.940;2023-04-24T18:28:08;10.81;55.42
33109;HTU21D;19481;51.118;6.940;2023-04-24T18:33:12;10.69;55.59
33109;HTU21D;19481;51.118;6.940;2023-04-24T18:38:13;10.50;56.03
33109;HTU21D;19481;51.118;6.940;2023-04-24T18:43:15;10.35;56.23
33109;HTU21D;19481;51.118;6.940;2023-04-24T18:48:18;10.21;56.38
33109;HTU21D;19481;51.118;6.940;2023-04-24T18:53:20;10.07;56.63
33109;HTU21D;19481;51.118;6.940;2023-04-24T18:58:21;9.96;56.68
33109;HTU21D;19481;51.118;6.940;2023-04-24T19:03:24;9.82;56.75
33109;HTU21D;19481;51.118;6.940;2023-04-24T19:08:27;9.72;56.80
33109;HTU21D;19481;51.118;6.940;2023-04-24T19:13:28;9.60;57.10
33109;HTU21D;19481;51.118;6.940;2023-04-24T19:18:31;9.48;57.32
33109;HTU21D;19481;51.118;6.940;2023-04-24T19:23:33;9.37;57.61
33109;HTU21D;19481;51.118;6.940;2023-04-24T19:28:35;9.39;57.52
33109;HTU21D;19481;51.118;6.940;2023-04-24T19:33:38;9.33;57.67
33109;HTU21D;19481;51.118;6.940;2023-04-24T19:38:40;9.26;57.93
33109;HTU21D;19481;51.118;6.940;2023-04-24T19:43:42;9.16;58.18
33109;HTU21D;19481;51.118;6.940;2023-04-24T19:48:45;9.01;58.58
33109;HTU21D;19481;51.118;6.940;2023-04-24T19:53:46;8.94;58.84
33109;HTU21D;19481;51.118;6.940;2023-04-24T19:58:48;8.90;59.00
33109;HTU21D;19481;51.118;6.940;2023-04-24T20:03:51;8.87;58.98
33109;HTU21D;19481;51.118;6.940;2023-04-24T20:08:53;8.79;59.27
33109;HTU21D;19481;51.118;6.940;2023-04-24T20:13:54;8.70;59.55
33109;HTU21D;19481;51.118;6.940;2023-04-24T20:18:58;8.67;59.35
33109;HTU21D;19481;51.118;6.940;2023-04-24T20:23:59;8.64;59.38
33109;HTU21D;19481;51.118;6.940;2023-04-24T20:29:01;8.53;59.49
33109;HTU21D;19481;51.118;6.940;2023-04-24T20:34:04;8.42;59.73
33109;HTU21D;19481;51.118;6.940;2023-04-24T20:39:06;8.39;59.67
33109;HTU21D;19481;51.118;6.940;2023-04-24T20:44:08;8.29;59.93
33109;HTU21D;19481;51.118;6.940;2023-04-24T20:49:12;8.21;59.93
33109;HTU21D;19481;51.118;6.940;2023-04-24T20:54:13;8.12;60.12
33109;HTU21D;19481;51.118;6.940;2023-04-24T20:59:15;8.05;60.09
33109;HTU21D;19481;51.118;6.940;2023-04-24T21:04:18;8.00;60.06
33109;HTU21D;19481;51.118;6.940;2023-04-24T21:09:20;8.02;60.06
33109;HTU21D;19481;51.118;6.940;2023-04-24T21:14:21;7.92;60.11
33109;HTU21D;19481;51.118;6.940;2023-04-24T21:19:24;7.78;60.40
33109;HTU21D;19481;51.118;6.940;2023-04-24T21:24:26;7.77;60.42
33109;HTU21D;19481;51.118;6.940;2023-04-24T21:29:27;7.69;60.47
33109;HTU21D;19481;51.118;6.940;2023-04-24T21:34:30;7.54;60.80
33109;HTU21D;19481;51.118;6.940;2023-04-24T21:39:32;7.41;61.35
33109;HTU21D;19481;51.118;6.940;2023-04-24T21:44:33;7.40;61.21
33109;HTU21D;19481;51.118;6.940;2023-04-24T21:49:36;7.20;61.51
33109;HTU21D;19481;51.118;6.940;2023-04-24T21:54:38;7.18;61.63
33109;HTU21D;19481;51.118;6.940;2023-04-24T21:59:40;7.24;61.69
33109;HTU21D;19481;51.118;6.940;2023-04-24T22:04:43;7.22;61.41
33109;HTU21D;19481;51.118;6.940;2023-04-24T22:09:45;7.22;61.45
33109;HTU21D;19481;51.118;6.940;2023-04-24T22:14:46;7.18;61.34
33109;HTU21D;19481;51.118;6.940;2023-04-24T22:19:49;7.04;61.57
33109;HTU21D;19481;51.118;6.940;2023-04-24T22:24:51;6.94;61.90
33109;HTU21D;19481;51.118;6.940;2023-04-24T22:29:53;6.91;61.99
33109;HTU21D;19481;51.118;6.940;2023-04-24T22:34:57;6.91;61.83
33109;HTU21D;19481;51.118;6.940;2023-04-24T22:39:58;6.81;62.15
33109;HTU21D;19481;51.118;6.940;2023-04-24T22:45:00;6.63;62.50
33109;HTU21D;19481;51.118;6.940;2023-04-24T22:50:06;6.49;62.70
33109;HTU21D;19481;51.118;6.940;2023-04-24T22:55:09;6.37;63.15
33109;HTU21D;19481;51.118;6.940;2023-04-24T23:00:11;6.23;63.47
33109;HTU21D;19481;51.118;6.940;2023-04-24T23:05:14;6.14;63.58
33109;HTU21D;19481;51.118;6.940;2023-04-24T23:10:16;6.01;64.05
33109;HTU21D;19481;51.118;6.940;2023-04-24T23:15:18;5.94;64.15
33109;HTU21D;19481;51.118;6.940;2023-04-24T23:20:21;5.85;63.98
33109;HTU21D;19481;51.118;6.940;2023-04-24T23:25:22;5.83;64.17
33109;HTU21D;19481;51.118;6.940;2023-04-24T23:30:24;5.86;63.95
33109;HTU21D;19481;51.118;6.940;2023-04-24T23:35:27;5.87;63.76
33109;HTU21D;19481;51.118;6.940;2023-04-24T23:40:29;5.81;63.76
33109;HTU21D;19481;51.118;6.940;2023-04-24T23:45:30;5.75;63.84
33109;HTU21D;19481;51.118;6.940;2023-04-24T23:50:33;5.66;63.84
33109;HTU21D;19481;51.118;6.940;2023-04-24T23:55:35;5.49;64.37
